sensor_id;sensor_type;location;lat;lon;timestamp;P1;durP1;ratioP1;P2;durP2;ratioP2
30892;SDS011;17595;50.884;4.346;2022-07-10T00:01:47;4.93;;;2.60;;
30892;SDS011;17595;50.884;4.346;2022-07-10T00:04:13;8.80;;;2.65;;
30892;SDS011;17595;50.884;4.346;2022-07-10T00:06:39;9.02;;;3.35;;
30892;SDS011;17595;50.884;4.346;2022-07-10T00:09:06;8.27;;;2.58;;
30892;SDS011;17595;50.884;4.346;2022-07-10T00:11:32;6.53;;;2.20;;
30892;SDS011;17595;50.884;4.346;2022-07-10T00:13:58;9.73;;;2.30;;
30892;SDS011;17595;50.884;4.346;2022-07-10T00:16:24;6.95;;;2.88;;
30892;SDS011;17595;50.884;4.346;2022-07-10T00:18:50;7.72;;;2.80;;
30892;SDS011;17595;50.884;4.346;2022-07-10T00:21:15;6.97;;;2.72;;
30892;SDS011;17595;50.884;4.346;2022-07-10T00:23:41;5.45;;;2.17;;
30892;SDS011;17595;50.884;4.346;2022-07-10T00:26:07;5.57;;;2.30;;
30892;SDS011;17595;50.884;4.346;2022-07-10T00:28:34;7.30;;;2.35;;
30892;SDS011;17595;50.884;4.346;2022-07-10T00:31:00;6.90;;;1.95;;
30892;SDS011;17595;50.884;4.346;2022-07-10T00:33:25;4.25;;;2.25;;
30892;SDS011;17595;50.884;4.346;2022-07-10T00:35:53;6.70;;;2.17;;
30892;SDS011;17595;50.884;4.346;2022-07-10T00:38:19;6.00;;;2.03;;
30892;SDS011;17595;50.884;4.346;2022-07-10T00:40:44;7.63;;;2.20;;
30892;SDS011;17595;50.884;4.346;2022-07-10T00:43:10;4.82;;;1.88;;
30892;SDS011;17595;50.884;4.346;2022-07-10T00:45:36;6.65;;;2.38;;
30892;SDS011;17595;50.884;4.346;2022-07-10T00:48:01;5.65;;;1.80;;
30892;SDS011;17595;50.884;4.346;2022-07-10T00:50:28;5.13;;;2.33;;
30892;SDS011;17595;50.884;4.346;2022-07-10T00:52:54;9.57;;;2.30;;
30892;SDS011;17595;50.884;4.346;2022-07-10T00:55:20;5.85;;;2.45;;
30892;SDS011;17595;50.884;4.346;2022-07-10T00:57:47;8.90;;;2.42;;
30892;SDS011;17595;50.884;4.346;2022-07-10T01:00:13;6.22;;;2.20;;
30892;SDS011;17595;50.884;4.346;2022-07-10T01:02:41;5.18;;;2.42;;
30892;SDS011;17595;50.884;4.346;2022-07-10T01:05:08;9.30;;;2.10;;
30892;SDS011;17595;50.884;4.346;2022-07-10T01:07:33;3.80;;;1.63;;
30892;SDS011;17595;50.884;4.346;2022-07-10T01:09:59;8.95;;;2.33;;
30892;SDS011;17595;50.884;4.346;2022-07-10T01:12:27;7.63;;;2.00;;
30892;SDS011;17595;50.884;4.346;2022-07-10T01:14:53;5.47;;;2.13;;
30892;SDS011;17595;50.884;4.346;2022-07-10T01:17:19;5.40;;;2.10;;
30892;SDS011;17595;50.884;4.346;2022-07-10T01:19:45;6.03;;;2.13;;
30892;SDS011;17595;50.884;4.346;2022-07-10T01:22:11;8.63;;;2.55;;
30892;SDS011;17595;50.884;4.346;2022-07-10T01:24:36;4.50;;;2.53;;
30892;SDS011;17595;50.884;4.346;2022-07-10T01:27:02;6.43;;;2.70;;
30892;SDS011;17595;50.884;4.346;2022-07-10T01:29:28;7.47;;;2.17;;
30892;SDS011;17595;50.884;4.346;2022-07-10T01:31:54;5.82;;;2.13;;
30892;SDS011;17595;50.884;4.346;2022-07-10T01:34:20;6.13;;;2.03;;
30892;SDS011;17595;50.884;4.346;2022-07-10T01:36:46;4.78;;;2.40;;
30892;SDS011;17595;50.884;4.346;2022-07-10T01:39:12;5.30;;;2.00;;
30892;SDS011;17595;50.884;4.346;2022-07-10T01:41:38;5.68;;;2.05;;
30892;SDS011;17595;50.884;4.346;2022-07-10T01:44:04;6.88;;;2.75;;
30892;SDS011;17595;50.884;4.346;2022-07-10T01:46:29;10.93;;;2.92;;
30892;SDS011;17595;50.884;4.346;2022-07-10T01:48:55;7.38;;;2.05;;
30892;SDS011;17595;50.884;4.346;2022-07-10T01:51:21;3.08;;;1.73;;
30892;SDS011;17595;50.884;4.346;2022-07-10T01:53:47;5.50;;;2.13;;
30892;SDS011;17595;50.884;4.346;2022-07-10T01:56:13;8.70;;;2.28;;
30892;SDS011;17595;50.884;4.346;2022-07-10T01:58:39;2.97;;;1.83;;
30892;SDS011;17595;50.884;4.346;2022-07-10T02:01:06;10.55;;;2.03;;
30892;SDS011;17595;50.884;4.346;2022-07-10T02:03:32;7.53;;;2.08;;
30892;SDS011;17595;50.884;4.346;2022-07-10T02:06:16;9.73;;;2.70;;
30892;SDS011;17595;50.884;4.346;2022-07-10T02:08:41;9.75;;;2.25;;
30892;SDS011;17595;50.884;4.346;2022-07-10T02:11:07;5.38;;;1.70;;
30892;SDS011;17595;50.884;4.346;2022-07-10T02:13:33;6.45;;;2.05;;
30892;SDS011;17595;50.884;4.346;2022-07-10T02:15:59;4.80;;;1.60;;
30892;SDS011;17595;50.884;4.346;2022-07-10T02:18:24;8.55;;;1.90;;
30892;SDS011;17595;50.884;4.346;2022-07-10T02:20:51;4.40;;;1.88;;
30892;SDS011;17595;50.884;4.346;2022-07-10T02:23:17;6.97;;;1.98;;
30892;SDS011;17595;50.884;4.346;2022-07-10T02:25:42;6.38;;;2.13;;
30892;SDS011;17595;50.884;4.346;2022-07-10T02:28:08;5.18;;;1.90;;
30892;SDS011;17595;50.884;4.346;2022-07-10T02:30:34;6.53;;;2.33;;
30892;SDS011;17595;50.884;4.346;2022-07-10T02:32:59;8.18;;;1.75;;
30892;SDS011;17595;50.884;4.346;2022-07-10T02:35:25;4.32;;;1.25;;
30892;SDS011;17595;50.884;4.346;2022-07-10T02:37:51;5.22;;;1.90;;
30892;SDS011;17595;50.884;4.346;2022-07-10T02:40:16;3.13;;;1.80;;
30892;SDS011;17595;50.884;4.346;2022-07-10T02:42:42;5.55;;;1.80;;
30892;SDS011;17595;50.884;4.346;2022-07-10T02:45:08;8.90;;;1.98;;
30892;SDS011;17595;50.884;4.346;2022-07-10T02:47:34;5.72;;;1.80;;
30892;SDS011;17595;50.884;4.346;2022-07-10T02:50:00;7.50;;;2.05;;
30892;SDS011;17595;50.884;4.346;2022-07-10T02:52:26;8.88;;;2.20;;
30892;SDS011;17595;50.884;4.346;2022-07-10T02:54:51;6.80;;;2.42;;
30892;SDS011;17595;50.884;4.346;2022-07-10T02:57:18;8.60;;;1.80;;
30892;SDS011;17595;50.884;4.346;2022-07-10T02:59:43;6.35;;;1.77;;
30892;SDS011;17595;50.884;4.346;2022-07-10T03:02:09;4.80;;;2.40;;
30892;SDS011;17595;50.884;4.346;2022-07-10T03:04:34;6.03;;;2.15;;
30892;SDS011;17595;50.884;4.346;2022-07-10T03:07:00;9.65;;;2.38;;
30892;SDS011;17595;50.884;4.346;2022-07-10T03:09:26;6.88;;;2.40;;
30892;SDS011;17595;50.884;4.346;2022-07-10T03:11:52;7.22;;;1.95;;
30892;SDS011;17595;50.884;4.346;2022-07-10T03:14:17;3.58;;;1.95;;
30892;SDS011;17595;50.884;4.346;2022-07-10T03:16:43;5.05;;;1.80;;
30892;SDS011;17595;50.884;4.346;2022-07-10T03:19:09;5.90;;;2.25;;
30892;SDS011;17595;50.884;4.346;2022-07-10T03:21:34;3.50;;;1.63;;
30892;SDS011;17595;50.884;4.346;2022-07-10T03:24:00;8.05;;;2.17;;
30892;SDS011;17595;50.884;4.346;2022-07-10T03:26:26;11.77;;;2.22;;
30892;SDS011;17595;50.884;4.346;2022-07-10T03:28:54;5.15;;;1.95;;
30892;SDS011;17595;50.884;4.346;2022-07-10T03:31:20;9.10;;;2.05;;
30892;SDS011;17595;50.884;4.346;2022-07-10T03:33:45;8.35;;;2.30;;
30892;SDS011;17595;50.884;4.346;2022-07-10T03:36:11;4.72;;;2.10;;
30892;SDS011;17595;50.884;4.346;2022-07-10T03:38:38;4.55;;;2.50;;
30892;SDS011;17595;50.884;4.346;2022-07-10T03:41:04;6.50;;;2.10;;
30892;SDS011;17595;50.884;4.346;2022-07-10T03:43:29;7.88;;;2.20;;
30892;SDS011;17595;50.884;4.346;2022-07-10T03:45:56;5.95;;;2.00;;
30892;SDS011;17595;50.884;4.346;2022-07-10T03:48:22;5.65;;;1.95;;
30892;SDS011;17595;50.884;4.346;2022-07-10T03:50:50;5.30;;;2.03;;
30892;SDS011;17595;50.884;4.346;2022-07-10T03:53:16;8.15;;;2.47;;
30892;SDS011;17595;50.884;4.346;2022-07-10T03:55:43;5.63;;;2.30;;
30892;SDS011;17595;50.884;4.346;2022-07-10T03:58:08;5.70;;;2.25;;
30892;SDS011;17595;50.884;4.346;2022-07-10T04:00:34;3.45;;;1.92;;
30892;SDS011;17595;50.884;4.346;2022-07-10T04:03:03;7.63;;;2.00;;
30892;SDS011;17595;50.884;4.346;2022-07-10T04:05:31;6.30;;;2.10;;
30892;SDS011;17595;50.884;4.346;2022-07-10T04:07:57;6.25;;;2.10;;
30892;SDS011;17595;50.884;4.346;2022-07-10T04:10:26;4.47;;;2.25;;
30892;SDS011;17595;50.884;4.346;2022-07-10T04:15:19;7.85;;;2.22;;
30892;SDS011;17595;50.884;4.346;2022-07-10T04:17:46;6.88;;;2.22;;
30892;SDS011;17595;50.884;4.346;2022-07-10T04:20:12;6.18;;;2.22;;
30892;SDS011;17595;50.884;4.346;2022-07-10T04:22:38;7.00;;;2.03;;
30892;SDS011;17595;50.884;4.346;2022-07-10T04:25:04;5.28;;;2.20;;
30892;SDS011;17595;50.884;4.346;2022-07-10T04:27:30;6.63;;;2.50;;
30892;SDS011;17595;50.884;4.346;2022-07-10T04:29:56;7.95;;;2.22;;
30892;SDS011;17595;50.884;4.346;2022-07-10T04:32:22;4.05;;;2.60;;
30892;SDS011;17595;50.884;4.346;2022-07-10T04:34:48;8.30;;;2.38;;
30892;SDS011;17595;50.884;4.346;2022-07-10T04:37:14;7.72;;;2.65;;
30892;SDS011;17595;50.884;4.346;2022-07-10T04:39:40;7.43;;;2.45;;
30892;SDS011;17595;50.884;4.346;2022-07-10T04:42:06;8.15;;;2.40;;
30892;SDS011;17595;50.884;4.346;2022-07-10T04:44:33;5.18;;;2.40;;
30892;SDS011;17595;50.884;4.346;2022-07-10T04:46:59;8.10;;;2.55;;
30892;SDS011;17595;50.884;4.346;2022-07-10T04:49:25;5.22;;;2.30;;
30892;SDS011;17595;50.884;4.346;2022-07-10T04:51:51;6.07;;;2.40;;
30892;SDS011;17595;50.884;4.346;2022-07-10T04:54:17;5.03;;;2.75;;
30892;SDS011;17595;50.884;4.346;2022-07-10T04:56:43;5.55;;;2.55;;
30892;SDS011;17595;50.884;4.346;2022-07-10T04:59:09;6.85;;;2.50;;
30892;SDS011;17595;50.884;4.346;2022-07-10T05:01:35;9.45;;;2.40;;
30892;SDS011;17595;50.884;4.346;2022-07-10T05:04:02;5.85;;;2.05;;
30892;SDS011;17595;50.884;4.346;2022-07-10T05:06:28;10.68;;;2.60;;
30892;SDS011;17595;50.884;4.346;2022-07-10T05:08:54;6.50;;;2.40;;
30892;SDS011;17595;50.884;4.346;2022-07-10T05:11:20;6.97;;;2.50;;
30892;SDS011;17595;50.884;4.346;2022-07-10T05:13:46;7.90;;;2.08;;
30892;SDS011;17595;50.884;4.346;2022-07-10T05:16:13;5.82;;;2.25;;
30892;SDS011;17595;50.884;4.346;2022-07-10T05:18:39;6.35;;;2.13;;
30892;SDS011;17595;50.884;4.346;2022-07-10T05:21:05;7.20;;;1.83;;
30892;SDS011;17595;50.884;4.346;2022-07-10T05:23:31;8.27;;;2.15;;
30892;SDS011;17595;50.884;4.346;2022-07-10T05:25:57;6.28;;;1.92;;
30892;SDS011;17595;50.884;4.346;2022-07-10T05:28:23;5.10;;;1.83;;
30892;SDS011;17595;50.884;4.346;2022-07-10T05:30:49;4.38;;;1.77;;
30892;SDS011;17595;50.884;4.346;2022-07-10T05:33:15;3.97;;;1.65;;
30892;SDS011;17595;50.884;4.346;2022-07-10T05:35:41;7.22;;;2.08;;
30892;SDS011;17595;50.884;4.346;2022-07-10T05:38:06;6.35;;;1.60;;
30892;SDS011;17595;50.884;4.346;2022-07-10T05:40:32;5.80;;;1.67;;
30892;SDS011;17595;50.884;4.346;2022-07-10T05:42:58;6.22;;;1.70;;
30892;SDS011;17595;50.884;4.346;2022-07-10T05:45:23;6.28;;;1.80;;
30892;SDS011;17595;50.884;4.346;2022-07-10T05:47:49;9.40;;;1.67;;
30892;SDS011;17595;50.884;4.346;2022-07-10T05:50:15;5.03;;;1.90;;
30892;SDS011;17595;50.884;4.346;2022-07-10T05:52:41;3.45;;;1.45;;
30892;SDS011;17595;50.884;4.346;2022-07-10T05:55:07;8.27;;;1.67;;
30892;SDS011;17595;50.884;4.346;2022-07-10T05:57:33;6.78;;;1.45;;
30892;SDS011;17595;50.884;4.346;2022-07-10T05:59:59;2.33;;;1.30;;
30892;SDS011;17595;50.884;4.346;2022-07-10T06:02:25;5.07;;;1.73;;
30892;SDS011;17595;50.884;4.346;2022-07-10T06:04:50;8.60;;;2.03;;
30892;SDS011;17595;50.884;4.346;2022-07-10T06:07:16;4.25;;;1.77;;
30892;SDS011;17595;50.884;4.346;2022-07-10T06:09:42;6.68;;;1.77;;
30892;SDS011;17595;50.884;4.346;2022-07-10T06:12:07;7.03;;;1.80;;
30892;SDS011;17595;50.884;4.346;2022-07-10T06:14:33;5.78;;;1.58;;
30892;SDS011;17595;50.884;4.346;2022-07-10T06:16:59;5.97;;;1.70;;
30892;SDS011;17595;50.884;4.346;2022-07-10T06:19:25;5.68;;;1.85;;
30892;SDS011;17595;50.884;4.346;2022-07-10T06:21:50;8.80;;;1.50;;
30892;SDS011;17595;50.884;4.346;2022-07-10T06:24:36;5.82;;;1.80;;
30892;SDS011;17595;50.884;4.346;2022-07-10T06:27:02;8.70;;;1.77;;
30892;SDS011;17595;50.884;4.346;2022-07-10T06:29:27;5.15;;;1.80;;
30892;SDS011;17595;50.884;4.346;2022-07-10T06:31:53;6.43;;;1.75;;
30892;SDS011;17595;50.884;4.346;2022-07-10T06:34:19;6.00;;;1.42;;
30892;SDS011;17595;50.884;4.346;2022-07-10T06:36:45;6.07;;;1.48;;
30892;SDS011;17595;50.884;4.346;2022-07-10T06:39:10;6.85;;;1.50;;
30892;SDS011;17595;50.884;4.346;2022-07-10T06:41:36;6.43;;;1.55;;
30892;SDS011;17595;50.884;4.346;2022-07-10T06:44:02;5.28;;;1.77;;
30892;SDS011;17595;50.884;4.346;2022-07-10T06:46:28;8.40;;;2.03;;
30892;SDS011;17595;50.884;4.346;2022-07-10T06:48:54;9.60;;;1.50;;
30892;SDS011;17595;50.884;4.346;2022-07-10T06:51:19;4.32;;;1.25;;
30892;SDS011;17595;50.884;4.346;2022-07-10T06:53:45;7.72;;;1.50;;
30892;SDS011;17595;50.884;4.346;2022-07-10T06:56:11;7.07;;;1.48;;
30892;SDS011;17595;50.884;4.346;2022-07-10T06:58:38;8.48;;;1.23;;
30892;SDS011;17595;50.884;4.346;2022-07-10T07:01:04;3.17;;;1.58;;
30892;SDS011;17595;50.884;4.346;2022-07-10T07:03:30;5.10;;;1.80;;
30892;SDS011;17595;50.884;4.346;2022-07-10T07:05:55;6.28;;;1.10;;
30892;SDS011;17595;50.884;4.346;2022-07-10T07:08:21;4.75;;;1.35;;
30892;SDS011;17595;50.884;4.346;2022-07-10T07:10:46;10.25;;;1.15;;
30892;SDS011;17595;50.884;4.346;2022-07-10T07:13:12;4.03;;;1.25;;
30892;SDS011;17595;50.884;4.346;2022-07-10T07:15:38;4.18;;;1.30;;
30892;SDS011;17595;50.884;4.346;2022-07-10T07:18:07;7.20;;;1.48;;
30892;SDS011;17595;50.884;4.346;2022-07-10T07:20:33;4.55;;;1.30;;
30892;SDS011;17595;50.884;4.346;2022-07-10T07:23:18;8.00;;;1.30;;
30892;SDS011;17595;50.884;4.346;2022-07-10T07:25:44;7.38;;;1.75;;
30892;SDS011;17595;50.884;4.346;2022-07-10T07:28:16;4.57;;;1.20;;
30892;SDS011;17595;50.884;4.346;2022-07-10T07:30:44;3.83;;;1.40;;
30892;SDS011;17595;50.884;4.346;2022-07-10T07:33:11;5.18;;;1.75;;
30892;SDS011;17595;50.884;4.346;2022-07-10T07:35:37;6.80;;;1.30;;
30892;SDS011;17595;50.884;4.346;2022-07-10T07:38:03;9.02;;;1.30;;
30892;SDS011;17595;50.884;4.346;2022-07-10T07:40:29;8.32;;;1.52;;
30892;SDS011;17595;50.884;4.346;2022-07-10T07:42:55;3.95;;;1.30;;
30892;SDS011;17595;50.884;4.346;2022-07-10T07:45:21;8.07;;;1.50;;
30892;SDS011;17595;50.884;4.346;2022-07-10T07:47:48;7.22;;;1.88;;
30892;SDS011;17595;50.884;4.346;2022-07-10T07:50:20;6.47;;;1.40;;
30892;SDS011;17595;50.884;4.346;2022-07-10T07:52:47;6.85;;;1.30;;
30892;SDS011;17595;50.884;4.346;2022-07-10T07:55:14;5.90;;;1.85;;
30892;SDS011;17595;50.884;4.346;2022-07-10T07:57:41;4.53;;;1.30;;
30892;SDS011;17595;50.884;4.346;2022-07-10T08:00:08;8.32;;;1.63;;
30892;SDS011;17595;50.884;4.346;2022-07-10T08:02:35;4.82;;;1.40;;
30892;SDS011;17595;50.884;4.346;2022-07-10T08:05:01;3.97;;;1.38;;
30892;SDS011;17595;50.884;4.346;2022-07-10T08:07:34;7.85;;;1.75;;
30892;SDS011;17595;50.884;4.346;2022-07-10T08:10:03;7.03;;;1.80;;
30892;SDS011;17595;50.884;4.346;2022-07-10T08:12:29;5.93;;;1.13;;
30892;SDS011;17595;50.884;4.346;2022-07-10T08:14:55;6.50;;;1.60;;
30892;SDS011;17595;50.884;4.346;2022-07-10T08:17:20;7.60;;;1.23;;
30892;SDS011;17595;50.884;4.346;2022-07-10T08:19:46;4.50;;;1.27;;
30892;SDS011;17595;50.884;4.346;2022-07-10T08:22:12;6.25;;;1.75;;
30892;SDS011;17595;50.884;4.346;2022-07-10T08:24:38;6.72;;;1.50;;
30892;SDS011;17595;50.884;4.346;2022-07-10T08:27:04;3.97;;;1.60;;
30892;SDS011;17595;50.884;4.346;2022-07-10T08:29:31;6.13;;;1.73;;
30892;SDS011;17595;50.884;4.346;2022-07-10T08:31:56;8.13;;;1.23;;
30892;SDS011;17595;50.884;4.346;2022-07-10T08:34:22;5.20;;;1.50;;
30892;SDS011;17595;50.884;4.346;2022-07-10T08:36:48;3.30;;;1.38;;
30892;SDS011;17595;50.884;4.346;2022-07-10T08:39:13;6.90;;;1.67;;
30892;SDS011;17595;50.884;4.346;2022-07-10T08:41:41;3.08;;;1.55;;
30892;SDS011;17595;50.884;4.346;2022-07-10T08:44:08;5.25;;;1.77;;
30892;SDS011;17595;50.884;4.346;2022-07-10T08:46:33;4.78;;;1.58;;
30892;SDS011;17595;50.884;4.346;2022-07-10T08:49:00;3.58;;;1.50;;
30892;SDS011;17595;50.884;4.346;2022-07-10T08:51:34;8.00;;;1.73;;
30892;SDS011;17595;50.884;4.346;2022-07-10T08:54:04;5.10;;;1.23;;
30892;SDS011;17595;50.884;4.346;2022-07-10T08:56:31;4.40;;;1.40;;
30892;SDS011;17595;50.884;4.346;2022-07-10T08:58:56;5.35;;;1.50;;
30892;SDS011;17595;50.884;4.346;2022-07-10T09:01:24;4.43;;;1.38;;
30892;SDS011;17595;50.884;4.346;2022-07-10T09:03:49;3.58;;;1.50;;
30892;SDS011;17595;50.884;4.346;2022-07-10T09:06:18;3.40;;;1.52;;
30892;SDS011;17595;50.884;4.346;2022-07-10T09:11:29;4.70;;;1.52;;
30892;SDS011;17595;50.884;4.346;2022-07-10T09:14:04;5.63;;;1.63;;
30892;SDS011;17595;50.884;4.346;2022-07-10T09:16:33;6.28;;;1.33;;
30892;SDS011;17595;50.884;4.346;2022-07-10T09:19:14;6.85;;;1.83;;
30892;SDS011;17595;50.884;4.346;2022-07-10T09:21:50;9.10;;;1.88;;
30892;SDS011;17595;50.884;4.346;2022-07-10T09:24:24;4.68;;;1.52;;
30892;SDS011;17595;50.884;4.346;2022-07-10T09:29:22;3.88;;;1.90;;
30892;SDS011;17595;50.884;4.346;2022-07-10T09:31:54;5.78;;;1.95;;
30892;SDS011;17595;50.884;4.346;2022-07-10T09:34:36;5.15;;;1.83;;
30892;SDS011;17595;50.884;4.346;2022-07-10T09:39:50;4.70;;;1.90;;
30892;SDS011;17595;50.884;4.346;2022-07-10T09:44:51;4.38;;;2.03;;
30892;SDS011;17595;50.884;4.346;2022-07-10T09:47:23;3.83;;;1.75;;
30892;SDS011;17595;50.884;4.346;2022-07-10T09:49:49;6.05;;;1.90;;
30892;SDS011;17595;50.884;4.346;2022-07-10T09:52:15;3.55;;;2.03;;
30892;SDS011;17595;50.884;4.346;2022-07-10T09:54:43;6.47;;;2.00;;
30892;SDS011;17595;50.884;4.346;2022-07-10T09:57:11;5.53;;;2.53;;
30892;SDS011;17595;50.884;4.346;2022-07-10T09:59:38;4.78;;;1.90;;
30892;SDS011;17595;50.884;4.346;2022-07-10T10:02:03;5.45;;;2.20;;
30892;SDS011;17595;50.884;4.346;2022-07-10T10:04:33;5.72;;;2.20;;
30892;SDS011;17595;50.884;4.346;2022-07-10T10:06:59;3.17;;;1.75;;
30892;SDS011;17595;50.884;4.346;2022-07-10T10:09:38;5.93;;;2.10;;
30892;SDS011;17595;50.884;4.346;2022-07-10T10:12:13;5.75;;;2.25;;
30892;SDS011;17595;50.884;4.346;2022-07-10T10:14:42;4.20;;;1.83;;
30892;SDS011;17595;50.884;4.346;2022-07-10T10:17:09;5.82;;;2.15;;
30892;SDS011;17595;50.884;4.346;2022-07-10T10:19:36;4.70;;;2.20;;
30892;SDS011;17595;50.884;4.346;2022-07-10T10:22:23;9.80;;;2.05;;
30892;SDS011;17595;50.884;4.346;2022-07-10T10:24:50;4.60;;;2.17;;
30892;SDS011;17595;50.884;4.346;2022-07-10T10:27:18;3.67;;;2.00;;
30892;SDS011;17595;50.884;4.346;2022-07-10T10:29:45;3.70;;;2.05;;
30892;SDS011;17595;50.884;4.346;2022-07-10T10:32:13;6.35;;;2.50;;
30892;SDS011;17595;50.884;4.346;2022-07-10T10:34:40;4.30;;;2.15;;
30892;SDS011;17595;50.884;4.346;2022-07-10T10:37:24;4.45;;;1.70;;
30892;SDS011;17595;50.884;4.346;2022-07-10T10:39:55;2.92;;;2.35;;
30892;SDS011;17595;50.884;4.346;2022-07-10T10:50:36;8.10;;;2.08;;
30892;SDS011;17595;50.884;4.346;2022-07-10T10:53:02;5.47;;;2.05;;
30892;SDS011;17595;50.884;4.346;2022-07-10T10:55:28;3.17;;;1.77;;
30892;SDS011;17595;50.884;4.346;2022-07-10T10:57:54;5.32;;;1.92;;
30892;SDS011;17595;50.884;4.346;2022-07-10T11:00:38;5.57;;;1.80;;
30892;SDS011;17595;50.884;4.346;2022-07-10T11:03:39;6.05;;;1.80;;
30892;SDS011;17595;50.884;4.346;2022-07-10T11:05:58;4.63;;;2.03;;
30892;SDS011;17595;50.884;4.346;2022-07-10T11:08:37;3.40;;;1.60;;
30892;SDS011;17595;50.884;4.346;2022-07-10T11:13:58;5.53;;;1.88;;
30892;SDS011;17595;50.884;4.346;2022-07-10T11:16:24;3.75;;;1.77;;
30892;SDS011;17595;50.884;4.346;2022-07-10T11:18:53;3.90;;;1.90;;
30892;SDS011;17595;50.884;4.346;2022-07-10T11:21:23;4.00;;;1.90;;
30892;SDS011;17595;50.884;4.346;2022-07-10T11:28:58;4.63;;;2.00;;
30892;SDS011;17595;50.884;4.346;2022-07-10T11:31:26;5.18;;;1.88;;
30892;SDS011;17595;50.884;4.346;2022-07-10T11:33:53;3.83;;;1.73;;
30892;SDS011;17595;50.884;4.346;2022-07-10T11:36:21;4.40;;;1.70;;
30892;SDS011;17595;50.884;4.346;2022-07-10T11:38:55;7.63;;;1.60;;
30892;SDS011;17595;50.884;4.346;2022-07-10T11:41:31;4.88;;;1.88;;
30892;SDS011;17595;50.884;4.346;2022-07-10T11:44:00;7.38;;;1.58;;
30892;SDS011;17595;50.884;4.346;2022-07-10T11:46:31;3.80;;;1.50;;
30892;SDS011;17595;50.884;4.346;2022-07-10T11:48:58;3.55;;;1.35;;
30892;SDS011;17595;50.884;4.346;2022-07-10T11:51:30;2.53;;;1.33;;
30892;SDS011;17595;50.884;4.346;2022-07-10T11:54:10;2.95;;;1.42;;
30892;SDS011;17595;50.884;4.346;2022-07-10T11:56:47;5.68;;;1.40;;
30892;SDS011;17595;50.884;4.346;2022-07-10T11:59:14;2.58;;;1.25;;
30892;SDS011;17595;50.884;4.346;2022-07-10T12:01:41;5.18;;;1.40;;
30892;SDS011;17595;50.884;4.346;2022-07-10T12:04:07;3.65;;;1.27;;
30892;SDS011;17595;50.884;4.346;2022-07-10T12:06:35;3.88;;;1.40;;
30892;SDS011;17595;50.884;4.346;2022-07-10T12:09:03;3.28;;;1.33;;
30892;SDS011;17595;50.884;4.346;2022-07-10T12:11:31;4.65;;;1.40;;
30892;SDS011;17595;50.884;4.346;2022-07-10T12:16:43;1.83;;;1.00;;
30892;SDS011;17595;50.884;4.346;2022-07-10T12:19:14;5.60;;;1.70;;
30892;SDS011;17595;50.884;4.346;2022-07-10T12:21:45;4.90;;;1.50;;
30892;SDS011;17595;50.884;4.346;2022-07-10T12:24:13;4.20;;;1.58;;
30892;SDS011;17595;50.884;4.346;2022-07-10T12:26:42;2.42;;;1.40;;
30892;SDS011;17595;50.884;4.346;2022-07-10T12:29:27;3.40;;;1.48;;
30892;SDS011;17595;50.884;4.346;2022-07-10T12:31:55;2.45;;;1.10;;
30892;SDS011;17595;50.884;4.346;2022-07-10T12:34:34;4.25;;;1.13;;
30892;SDS011;17595;50.884;4.346;2022-07-10T12:37:07;6.13;;;1.23;;
30892;SDS011;17595;50.884;4.346;2022-07-10T12:39:35;4.05;;;1.05;;
30892;SDS011;17595;50.884;4.346;2022-07-10T12:42:10;3.70;;;1.20;;
30892;SDS011;17595;50.884;4.346;2022-07-10T12:44:37;3.55;;;1.20;;
30892;SDS011;17595;50.884;4.346;2022-07-10T12:47:13;3.60;;;1.20;;
30892;SDS011;17595;50.884;4.346;2022-07-10T12:49:50;4.07;;;1.30;;
30892;SDS011;17595;50.884;4.346;2022-07-10T12:55:18;3.78;;;1.48;;
30892;SDS011;17595;50.884;4.346;2022-07-10T12:57:51;3.08;;;1.15;;
30892;SDS011;17595;50.884;4.346;2022-07-10T13:03:07;3.45;;;1.30;;
30892;SDS011;17595;50.884;4.346;2022-07-10T13:05:38;4.40;;;1.30;;
30892;SDS011;17595;50.884;4.346;2022-07-10T13:10:35;8.45;;;1.55;;
30892;SDS011;17595;50.884;4.346;2022-07-10T13:13:01;2.95;;;1.20;;
30892;SDS011;17595;50.884;4.346;2022-07-10T13:15:31;2.17;;;1.20;;
30892;SDS011;17595;50.884;4.346;2022-07-10T13:17:59;4.03;;;1.47;;
30892;SDS011;17595;50.884;4.346;2022-07-10T13:20:25;2.15;;;1.17;;
30892;SDS011;17595;50.884;4.346;2022-07-10T13:22:50;4.10;;;1.70;;
30892;SDS011;17595;50.884;4.346;2022-07-10T13:25:16;4.13;;;1.58;;
30892;SDS011;17595;50.884;4.346;2022-07-10T13:27:41;4.15;;;1.60;;
30892;SDS011;17595;50.884;4.346;2022-07-10T13:30:07;3.35;;;1.55;;
30892;SDS011;17595;50.884;4.346;2022-07-10T13:32:33;3.40;;;1.10;;
30892;SDS011;17595;50.884;4.346;2022-07-10T13:34:59;3.08;;;1.45;;
30892;SDS011;17595;50.884;4.346;2022-07-10T13:37:25;3.20;;;1.15;;
30892;SDS011;17595;50.884;4.346;2022-07-10T13:39:51;1.92;;;1.30;;
30892;SDS011;17595;50.884;4.346;2022-07-10T13:42:16;2.75;;;1.35;;
30892;SDS011;17595;50.884;4.346;2022-07-10T13:44:42;3.00;;;1.10;;
30892;SDS011;17595;50.884;4.346;2022-07-10T13:47:07;4.45;;;1.42;;
30892;SDS011;17595;50.884;4.346;2022-07-10T13:49:33;2.88;;;1.30;;
30892;SDS011;17595;50.884;4.346;2022-07-10T13:51:59;2.38;;;1.10;;
30892;SDS011;17595;50.884;4.346;2022-07-10T13:54:25;3.38;;;1.40;;
30892;SDS011;17595;50.884;4.346;2022-07-10T13:56:51;4.55;;;1.23;;
30892;SDS011;17595;50.884;4.346;2022-07-10T13:59:16;2.15;;;1.30;;
30892;SDS011;17595;50.884;4.346;2022-07-10T14:01:42;5.03;;;1.70;;
30892;SDS011;17595;50.884;4.346;2022-07-10T14:04:08;2.38;;;1.27;;
30892;SDS011;17595;50.884;4.346;2022-07-10T14:06:33;2.28;;;0.88;;
30892;SDS011;17595;50.884;4.346;2022-07-10T14:08:59;1.92;;;0.80;;
30892;SDS011;17595;50.884;4.346;2022-07-10T14:11:24;3.35;;;1.20;;
30892;SDS011;17595;50.884;4.346;2022-07-10T14:13:51;5.28;;;1.27;;
30892;SDS011;17595;50.884;4.346;2022-07-10T14:16:16;4.25;;;1.17;;
30892;SDS011;17595;50.884;4.346;2022-07-10T14:18:42;4.93;;;1.20;;
30892;SDS011;17595;50.884;4.346;2022-07-10T14:21:09;3.53;;;1.05;;
30892;SDS011;17595;50.884;4.346;2022-07-10T14:23:36;2.13;;;0.88;;
30892;SDS011;17595;50.884;4.346;2022-07-10T14:26:04;4.10;;;1.45;;
30892;SDS011;17595;50.884;4.346;2022-07-10T14:28:31;3.67;;;1.30;;
30892;SDS011;17595;50.884;4.346;2022-07-10T14:30:57;2.85;;;1.00;;
30892;SDS011;17595;50.884;4.346;2022-07-10T14:33:25;2.80;;;1.02;;
30892;SDS011;17595;50.884;4.346;2022-07-10T14:35:51;5.40;;;1.40;;
30892;SDS011;17595;50.884;4.346;2022-07-10T14:38:17;4.88;;;1.33;;
30892;SDS011;17595;50.884;4.346;2022-07-10T14:40:43;2.38;;;1.00;;
30892;SDS011;17595;50.884;4.346;2022-07-10T14:43:08;3.45;;;1.13;;
30892;SDS011;17595;50.884;4.346;2022-07-10T14:45:34;4.28;;;1.20;;
30892;SDS011;17595;50.884;4.346;2022-07-10T14:47:59;1.75;;;1.00;;
30892;SDS011;17595;50.884;4.346;2022-07-10T14:50:25;4.05;;;1.05;;
30892;SDS011;17595;50.884;4.346;2022-07-10T14:52:51;3.22;;;1.10;;
30892;SDS011;17595;50.884;4.346;2022-07-10T14:55:17;2.92;;;0.93;;
30892;SDS011;17595;50.884;4.346;2022-07-10T14:57:43;3.80;;;1.23;;
30892;SDS011;17595;50.884;4.346;2022-07-10T15:00:08;3.15;;;1.00;;
30892;SDS011;17595;50.884;4.346;2022-07-10T15:02:34;1.70;;;0.90;;
30892;SDS011;17595;50.884;4.346;2022-07-10T15:05:00;1.98;;;0.90;;
30892;SDS011;17595;50.884;4.346;2022-07-10T15:07:27;3.88;;;0.90;;
30892;SDS011;17595;50.884;4.346;2022-07-10T15:09:53;2.47;;;0.98;;
30892;SDS011;17595;50.884;4.346;2022-07-10T15:12:18;2.50;;;0.98;;
30892;SDS011;17595;50.884;4.346;2022-07-10T15:14:45;4.22;;;0.93;;
30892;SDS011;17595;50.884;4.346;2022-07-10T15:17:11;3.92;;;0.98;;
30892;SDS011;17595;50.884;4.346;2022-07-10T15:19:37;1.98;;;0.77;;
30892;SDS011;17595;50.884;4.346;2022-07-10T15:22:02;2.45;;;0.77;;
30892;SDS011;17595;50.884;4.346;2022-07-10T15:24:28;2.75;;;0.90;;
30892;SDS011;17595;50.884;4.346;2022-07-10T15:26:54;2.17;;;0.85;;
30892;SDS011;17595;50.884;4.346;2022-07-10T15:29:19;3.78;;;1.08;;